Airfield :
LOGIN :

Register | Disclaimer

   EN    FR    IT 

 










Legend :    VFR   Marginal VFR   IFR   Intensive IFR   Very Intensive IFR
Visi :
Ceiling :
>= 8 km
>= 3000ft
5 to 8 km
1000 to 3000 ft
1500m to 5 km
500 to 1000 ft
800 to 1500m
200 to 500 ft
< 800m
< 200 ft
Symbols :   Thunderstorms  Fog  Heavy snow  Heavy precipitations  Wind > 20 kt
SIGMETs :     Misc.  Thunderstorms  Icing  Turbulence  Mountain Waves  Volcanic Ashes







- Airport Elevation : 1766 ft


ETHL - Laupheim AB

CURRENT METAR :
  • 212156Z 27010KT 5000 TSRA SCT012 SCT040CB BKN080 16/15 Q1014 WHT

EXPIRED METARs :
  • 212120Z 29009G19KT 8000 -TSRA FEW015 SCT040CB BKN090 17/15 Q1013 RERA BLU
  • 212038Z 26021KT 6000 TSRA SCT020 SCT045CB BKN090 21/15 Q1013 WHT
  • 212020Z 13006KT 9999 TS SCT028 SCT050CB BKN250 23/15 Q1012 BLU+
  • 211920Z 10008KT 9999 FEW040 SCT130 BKN270 24/14 Q1011 BLU+

Expired Forecast.
No reported NOTAMs for that airfield.



MET'MAP, your aeronautical weather chart ! - Copyright ORBIFLY December 2007 - Disclaimer

ORBIFLY MET'MAP TEAM :

Programming & Development : Alexandra Zaïnal
Concept & Development : Baudouin d'Aumeries
Co-Development & Prog : Marc-Olivier Méhu
Technical & hardware support : Manuel Goepfert

Contact : metmap@orbifly.com




SOURCES & CREDITS :

   NOAA